METAR Data
IDs: Format: Raw Decoded Include TAF

Data at: 0127 UTC 22 Jan 2020

METAR for:KELA (Eagle Lake Arpt, TX, US)
Text:KELA 220115Z AUTO 13012KT 10SM CLR 12/05 A3035 RMK AO2 T01150051
Temperature: 11.5°C ( 53°F)
Dewpoint: 5.1°C ( 41°F) [RH = 65%]
Pressure (altimeter):30.35 inches Hg (1027.9 mb)
Winds:from the SE (130 degrees) at 14 MPH (12 knots; 6.2 m/s)
Visibility:10 or more sm (16+ km)
Ceiling:at least 12,000 feet AGL
Clouds:sky clear below 12,000 feet AGL
QC Flag:automated observation with no human augmentation

TAF for:KELA (Eagle Lake Arpt, TX, US)
Text:No data found